createdAt,value
2022-12-15T00:00:04.688Z,98705.44
2022-12-15T00:05:25.162Z,98705.84
2022-12-15T00:10:45.235Z,98715.75
2022-12-15T00:16:06.149Z,98720.78
2022-12-15T00:21:26.466Z,98710.50
2022-12-15T00:26:46.751Z,98709.63
2022-12-15T00:32:07.058Z,98706.31
2022-12-15T00:37:27.314Z,98706.94
2022-12-15T00:42:28.939Z,98717.31
2022-12-15T00:47:32.863Z,98718.47
2022-12-15T00:52:53.294Z,98728.47
2022-12-15T00:58:13.547Z,98734.06
2022-12-15T01:03:38.009Z,98735.63
2022-12-15T01:08:58.602Z,98740.59
2022-12-15T01:14:18.915Z,98744.09
2022-12-15T01:19:39.189Z,98762.78
2022-12-15T01:24:40.939Z,98771.03
2022-12-15T01:29:42.910Z,98776.00
2022-12-15T01:34:44.636Z,98778.19
2022-12-15T01:40:05.097Z,98786.28
2022-12-15T01:45:47.707Z,98786.59
2022-12-15T01:51:17.947Z,98800.47
2022-12-15T01:56:21.672Z,98798.16
2022-12-15T02:01:23.495Z,98814.94
2022-12-15T02:06:25.982Z,98826.03
2022-12-15T02:11:30.492Z,98821.06
2022-12-15T02:16:42.800Z,98823.72
2022-12-15T02:22:10.612Z,98830.66
2022-12-15T02:27:21.828Z,98839.13
2022-12-15T02:32:40.863Z,98833.06
2022-12-15T02:37:44.979Z,98837.28
2022-12-15T02:42:56.615Z,98835.63
2022-12-15T02:48:05.152Z,98834.03
2022-12-15T02:53:20.104Z,98841.00
2022-12-15T02:58:36.791Z,98853.75
2022-12-15T03:03:40.022Z,98862.56
2022-12-15T03:08:41.713Z,98867.69
2022-12-15T03:13:43.318Z,98861.44
2022-12-15T03:18:45.081Z,98869.69
2022-12-15T03:23:46.951Z,98889.50
2022-12-15T03:28:48.628Z,98892.06
2022-12-15T03:33:50.352Z,98892.59
2022-12-15T03:38:51.984Z,98896.13
2022-12-15T03:43:53.678Z,98900.97
2022-12-15T03:48:55.574Z,98900.94
2022-12-15T03:53:58.880Z,98910.22
2022-12-15T03:59:00.645Z,98909.28
2022-12-15T04:04:02.640Z,98914.59
2022-12-15T04:09:04.337Z,98921.09
2022-12-15T04:14:06.021Z,98936.88
2022-12-15T04:19:26.240Z,98949.84
2022-12-15T04:24:46.617Z,98955.03
2022-12-15T04:30:06.799Z,98959.47
2022-12-15T04:35:27.701Z,98972.91
2022-12-15T04:40:48.463Z,98978.31
2022-12-15T04:46:08.697Z,98996.97
2022-12-15T04:51:28.905Z,98993.47
2022-12-15T04:56:50.864Z,99001.66
2022-12-15T05:02:11.217Z,99014.69
2022-12-15T05:07:31.998Z,99008.69
2022-12-15T05:12:52.113Z,98999.75
2022-12-15T05:18:12.791Z,99019.38
2022-12-15T05:23:33.209Z,99028.53
2022-12-15T05:28:53.699Z,99032.59
2022-12-15T05:34:00.957Z,99035.56
2022-12-15T05:39:06.600Z,99046.13
2022-12-15T05:44:08.548Z,99049.56
2022-12-15T05:49:14.946Z,99054.41
2022-12-15T05:54:19.497Z,99065.88
2022-12-15T05:59:21.284Z,99076.56
2022-12-15T06:04:23.174Z,99076.22
2022-12-15T06:09:24.861Z,99073.38
2022-12-15T06:14:26.518Z,99077.50
2022-12-15T06:19:28.151Z,99088.09
2022-12-15T06:24:29.856Z,99092.78
2022-12-15T06:29:31.641Z,99098.97
2022-12-15T06:34:33.337Z,99103.81
2022-12-15T06:39:35.006Z,99111.19
2022-12-15T06:44:36.665Z,99131.50
2022-12-15T06:49:38.359Z,99135.84
2022-12-15T06:54:39.973Z,99140.69
2022-12-15T06:59:41.699Z,99149.66
2022-12-15T07:04:43.978Z,99147.47
2022-12-15T07:09:45.698Z,99154.78
2022-12-15T07:14:53.030Z,99158.19
2022-12-15T07:19:55.165Z,99159.09
2022-12-15T07:24:57.053Z,99171.81
2022-12-15T07:29:58.765Z,99185.38
2022-12-15T07:35:00.642Z,99181.59
2022-12-15T07:40:02.588Z,99189.53
2022-12-15T07:45:05.419Z,99184.75
2022-12-15T07:50:07.858Z,99208.25
2022-12-15T07:55:09.909Z,99210.75
2022-12-15T08:00:14.886Z,99221.50
2022-12-15T08:05:16.607Z,99211.28
2022-12-15T08:10:18.325Z,99209.13
2022-12-15T08:15:20.054Z,99207.28
2022-12-15T08:20:22.502Z,99212.75
2022-12-15T08:25:25.148Z,99216.97
2022-12-15T08:30:26.939Z,99230.06
2022-12-15T08:35:55.127Z,99236.44
2022-12-15T08:40:50.659Z,99245.56
2022-12-15T08:45:52.560Z,99251.22
2022-12-15T08:50:58.824Z,99245.28
2022-12-15T08:56:06.221Z,99248.94
2022-12-15T09:01:14.875Z,99244.84
2022-12-15T09:06:29.425Z,99245.88
2022-12-15T09:11:32.114Z,99252.03
2022-12-15T09:16:33.996Z,99257.16
2022-12-15T09:21:35.797Z,99261.84
2022-12-15T09:26:37.513Z,99263.63
2022-12-15T09:31:39.992Z,99267.81
2022-12-15T09:36:42.419Z,99256.28
2022-12-15T09:41:53.769Z,99262.38
2022-12-15T09:47:21.356Z,99266.00
2022-12-15T09:52:39.076Z,99273.94
2022-12-15T09:57:48.271Z,99259.72
2022-12-15T10:02:53.036Z,99277.91
2022-12-15T10:07:55.124Z,99281.16
2022-12-15T10:13:02.813Z,99296.09
2022-12-15T10:18:16.165Z,99293.66
2022-12-15T10:23:18.542Z,99294.91
2022-12-15T10:28:52.878Z,99304.84
2022-12-15T10:34:05.607Z,99314.25
2022-12-15T10:39:07.424Z,99306.63
2022-12-15T10:44:36.368Z,99305.03
2022-12-15T10:49:38.215Z,99317.22
2022-12-15T10:54:47.272Z,99303.63
2022-12-15T10:59:50.834Z,99304.13
2022-12-15T11:05:04.733Z,99314.38
2022-12-15T11:10:51.244Z,99306.31
2022-12-15T11:15:55.024Z,99300.38
2022-12-15T11:21:07.737Z,99310.81
2022-12-15T11:26:32.200Z,99302.75
2022-12-15T11:31:40.521Z,99296.50
2022-12-15T11:36:45.702Z,99297.75
2022-12-15T11:41:59.142Z,99289.78
2022-12-15T11:47:43.241Z,99290.94
2022-12-15T11:53:04.464Z,99306.25
2022-12-15T11:58:27.348Z,99303.00
2022-12-15T12:03:41.055Z,99299.59
2022-12-15T12:09:04.720Z,99292.59
2022-12-15T12:14:30.776Z,99297.69
2022-12-15T12:19:41.420Z,99284.13
2022-12-15T12:24:53.087Z,99278.88
2022-12-15T12:30:05.358Z,99270.91
2022-12-15T12:35:31.022Z,99272.22
2022-12-15T12:40:40.691Z,99269.97
2022-12-15T12:46:20.556Z,99278.59
2022-12-15T12:51:39.673Z,99286.63
2022-12-15T12:56:50.446Z,99285.81
2022-12-15T13:01:52.648Z,99283.09
2022-12-15T13:06:59.668Z,99285.78
2022-12-15T13:12:20.659Z,99277.91
2022-12-15T13:17:39.052Z,99279.38
2022-12-15T13:22:40.915Z,99273.50
2022-12-15T13:27:42.692Z,99276.97
2022-12-15T13:32:52.380Z,99268.97
2022-12-15T13:37:57.014Z,99264.56
2022-12-15T13:43:04.835Z,99276.59
2022-12-15T13:48:15.676Z,99275.66
2022-12-15T13:53:22.235Z,99289.22
2022-12-15T13:58:24.665Z,99292.56
2022-12-15T14:03:26.943Z,99289.09
2022-12-15T14:08:30.525Z,99309.63
2022-12-15T14:13:36.985Z,99312.41
2022-12-15T14:18:39.319Z,99311.50
2022-12-15T14:24:04.103Z,99294.19
2022-12-15T14:29:06.350Z,99294.00
2022-12-15T14:34:18.776Z,99293.69
2022-12-15T14:39:25.518Z,99299.75
2022-12-15T14:44:41.142Z,99297.19
2022-12-15T14:49:48.567Z,99297.94
2022-12-15T14:54:59.120Z,99308.00
2022-12-15T15:00:00.783Z,99306.00
2022-12-15T15:05:07.841Z,99298.97
2022-12-15T15:10:23.163Z,99284.28
2022-12-15T15:15:26.654Z,99292.50
2022-12-15T15:20:37.787Z,99296.50
2022-12-15T15:25:48.472Z,99297.06
2022-12-15T15:31:05.778Z,99298.63
2022-12-15T15:36:10.885Z,99300.09
2022-12-15T15:41:16.803Z,99291.38
2022-12-15T15:46:21.100Z,99292.00
2022-12-15T15:51:24.823Z,99293.09
2022-12-15T15:56:27.484Z,99292.53
2022-12-15T16:01:29.205Z,99306.53
2022-12-15T16:06:31.019Z,99304.66
2022-12-15T16:11:33.910Z,99312.75
2022-12-15T16:16:35.567Z,99317.25
2022-12-15T16:21:37.734Z,99319.72
2022-12-15T16:26:42.885Z,99331.00
2022-12-15T16:31:45.822Z,99326.81
2022-12-15T16:36:47.831Z,99325.72
2022-12-15T16:41:51.671Z,99321.28
2022-12-15T16:46:54.052Z,99327.75
2022-12-15T16:51:55.760Z,99345.28
2022-12-15T16:56:59.914Z,99348.34
2022-12-15T17:02:02.342Z,99353.38
2022-12-15T17:07:04.125Z,99342.25
2022-12-15T17:12:06.035Z,99339.47
2022-12-15T17:17:19.220Z,99336.22
2022-12-15T17:22:27.515Z,99349.31
2022-12-15T17:27:30.144Z,99359.75
2022-12-15T17:32:34.317Z,99342.03
2022-12-15T17:37:36.061Z,99345.69
2022-12-15T17:42:37.806Z,99338.75
2022-12-15T17:47:39.454Z,99330.84
2022-12-15T17:52:44.257Z,99342.75
2022-12-15T17:57:47.189Z,99347.69
2022-12-15T18:02:49.212Z,99342.84
2022-12-15T18:07:58.760Z,99331.56
2022-12-15T18:13:00.767Z,99323.16
2022-12-15T18:18:02.470Z,99315.22
2022-12-15T18:23:14.021Z,99320.22
2022-12-15T18:28:19.977Z,99332.47
2022-12-15T18:33:23.373Z,99340.59
2022-12-15T18:38:27.254Z,99340.97
2022-12-15T18:43:31.459Z,99351.75
2022-12-15T18:48:56.232Z,99342.84
2022-12-15T18:53:57.961Z,99345.06
2022-12-15T18:58:59.725Z,99337.94
2022-12-15T19:04:01.314Z,99331.19
2022-12-15T19:09:06.247Z,99339.19
2022-12-15T19:14:37.467Z,99330.00
2022-12-15T19:19:57.914Z,99332.69
2022-12-15T19:24:59.640Z,99324.13
2022-12-15T19:30:01.598Z,99325.13
2022-12-15T19:35:03.389Z,99333.72
2022-12-15T19:40:06.321Z,99331.66
2022-12-15T19:45:16.890Z,99333.47
2022-12-15T19:50:22.428Z,99324.50
2022-12-15T19:55:32.645Z,99337.75
2022-12-15T20:00:34.410Z,99328.47
2022-12-15T20:05:36.945Z,99319.75
2022-12-15T20:10:39.060Z,99320.94
2022-12-15T20:15:40.957Z,99326.44
2022-12-15T20:20:45.672Z,99312.19
2022-12-15T20:25:48.216Z,99321.88
2022-12-15T20:30:50.590Z,99306.38
2022-12-15T20:35:52.757Z,99298.44
2022-12-15T20:40:56.296Z,99289.97
2022-12-15T20:46:28.606Z,99278.63
2022-12-15T20:51:32.889Z,99270.50
2022-12-15T20:56:34.669Z,99262.91
2022-12-15T21:01:39.001Z,99261.03
2022-12-15T21:06:43.898Z,99249.66
2022-12-15T21:11:46.974Z,99253.09
2022-12-15T21:16:49.632Z,99256.84
2022-12-15T21:21:55.600Z,99244.28
2022-12-15T21:26:57.956Z,99231.91
2022-12-15T21:31:59.731Z,99229.78
2022-12-15T21:37:03.460Z,99238.31
2022-12-15T21:42:13.784Z,99223.66
2022-12-15T21:47:48.400Z,99232.41
2022-12-15T21:52:50.284Z,99227.28
2022-12-15T21:57:54.499Z,99238.31
2022-12-15T22:02:56.342Z,99239.94
2022-12-15T22:08:01.633Z,99235.00
2022-12-15T22:13:03.687Z,99233.09
2022-12-15T22:18:11.854Z,99251.13
2022-12-15T22:23:15.694Z,99262.22
2022-12-15T22:28:21.680Z,99257.19
2022-12-15T22:33:25.462Z,99249.41
2022-12-15T22:38:27.278Z,99253.69
2022-12-15T22:43:39.523Z,99252.84
2022-12-15T22:48:44.622Z,99270.00
2022-12-15T22:53:46.764Z,99256.75
2022-12-15T22:58:53.091Z,99258.44
2022-12-15T23:03:55.712Z,99257.81
2022-12-15T23:08:57.372Z,99276.63
2022-12-15T23:13:59.055Z,99281.53
2022-12-15T23:19:00.863Z,99273.06
2022-12-15T23:24:02.573Z,99264.28
2022-12-15T23:29:04.239Z,99248.75
2022-12-15T23:34:05.907Z,99236.84
2022-12-15T23:39:07.617Z,99214.72
2022-12-15T23:44:12.259Z,99220.56
2022-12-15T23:49:13.873Z,99224.03
2022-12-15T23:54:15.790Z,99230.78
2022-12-15T23:59:17.647Z,99226.66
